Time;durP1;ratioP1;P1;durP2;ratioP2;P2;SDS_P1;SDS_P2;PMS_P1;PMS_P2;Temp;Humidity;BMP_temperature;BMP_pressure;BME280_temperature;BME280_humidity;BME280_pressure;Samples;Min_cycle;Max_cycle;Signal;HPM_P1;HPM_P2
2023/10/30 00:00:45;;;;;;;11.27;3.67;;;;;;;10.56;100.00;97791.66;5071783;28;20021;-73
2023/10/30 00:03:11;;;;;;;6.65;3.00;;;;;;;10.50;100.00;97777.75;5071492;28;20032;-73
2023/10/30 00:05:37;;;;;;;8.90;3.55;;;;;;;10.47;100.00;97789.50;5071422;28;20028;-73
2023/10/30 00:08:04;;;;;;;6.00;3.17;;;;;;;10.36;100.00;97786.59;5071656;28;20024;-74
2023/10/30 00:10:29;;;;;;;7.43;3.55;;;;;;;10.38;100.00;97779.34;5071427;28;20109;-73
2023/10/30 00:12:55;;;;;;;12.43;3.83;;;;;;;10.36;100.00;97781.25;5088305;28;20162;-71
2023/10/30 00:15:20;;;;;;;6.55;3.42;;;;;;;10.37;100.00;97784.78;5071500;28;20377;-72
2023/10/30 00:17:46;;;;;;;8.43;3.70;;;;;;;10.41;100.00;97792.53;5071301;28;20028;-72
2023/10/30 00:20:11;;;;;;;5.25;3.40;;;;;;;10.38;100.00;97781.16;5054574;28;20029;-73
2023/10/30 00:22:37;;;;;;;11.30;3.92;;;;;;;10.28;100.00;97779.00;5072495;28;20404;-72
2023/10/30 00:25:03;;;;;;;12.10;4.13;;;;;;;10.36;100.00;97781.25;5072608;28;20086;-73
2023/10/30 00:27:29;;;;;;;7.47;3.95;;;;;;;10.31;100.00;97777.97;5054666;28;20024;-73
2023/10/30 00:29:54;;;;;;;13.95;4.38;;;;;;;10.22;100.00;97776.69;5072427;28;20029;-73
2023/10/30 00:32:20;;;;;;;11.23;3.88;;;;;;;10.30;100.00;97770.91;5070983;28;20566;-73
2023/10/30 00:34:45;;;;;;;7.03;3.78;;;;;;;10.38;100.00;97789.16;5070375;28;20459;-73
2023/10/30 00:37:12;;;;;;;7.75;3.53;;;;;;;10.39;100.00;97786.41;5072347;28;20020;-73
2023/10/30 00:39:38;;;;;;;8.65;3.88;;;;;;;10.37;100.00;97782.13;5087860;28;20024;-72
2023/10/30 00:42:04;;;;;;;7.95;4.22;;;;;;;10.35;100.00;97782.19;5070619;28;20025;-73
2023/10/30 00:44:30;;;;;;;15.20;4.35;;;;;;;10.32;100.00;97780.56;5070944;28;20057;-73
2023/10/30 00:46:55;;;;;;;13.98;4.63;;;;;;;10.26;100.00;97770.22;5070749;28;20424;-73
2023/10/30 00:49:21;;;;;;;11.98;4.22;;;;;;;10.24;100.00;97766.75;5070689;28;20028;-72
2023/10/30 00:51:47;;;;;;;9.57;4.50;;;;;;;10.11;100.00;97763.03;5070619;28;20420;-73
2023/10/30 00:54:12;;;;;;;10.75;4.07;;;;;;;10.13;100.00;97762.94;5070780;28;20028;-74
2023/10/30 00:56:38;;;;;;;7.35;4.10;;;;;;;10.15;100.00;97767.28;5070722;28;20027;-72
2023/10/30 00:59:03;;;;;;;7.60;4.30;;;;;;;10.05;100.00;97759.84;5070614;28;20089;-73
2023/10/30 01:01:29;;;;;;;9.25;4.75;;;;;;;9.92;100.00;97767.69;5070350;28;20029;-72
2023/10/30 01:03:54;;;;;;;12.95;5.68;;;;;;;9.79;100.00;97769.31;5071645;28;20027;-73
2023/10/30 01:06:20;;;;;;;14.18;5.80;;;;;;;9.73;100.00;97770.50;5070237;28;20024;-72
2023/10/30 01:08:45;;;;;;;12.25;6.35;;;;;;;9.66;100.00;97771.78;5070590;28;20060;-72
2023/10/30 01:11:11;;;;;;;16.20;7.20;;;;;;;9.62;100.00;97762.25;5071519;28;20020;-73
2023/10/30 01:13:36;;;;;;;29.52;10.90;;;;;;;9.71;100.00;97782.22;5070192;28;20141;-72
2023/10/30 01:16:03;;;;;;;25.40;10.07;;;;;;;9.59;100.00;97777.56;5070146;28;20461;-72
2023/10/30 01:18:29;;;;;;;25.27;13.30;;;;;;;9.58;100.00;97778.50;5070165;28;20028;-73
2023/10/30 01:20:55;;;;;;;32.63;15.35;;;;;;;9.53;100.00;97778.75;5069732;28;20044;-72
2023/10/30 01:23:21;;;;;;;31.90;14.90;;;;;;;9.60;100.00;97789.94;5070254;28;20033;-73
2023/10/30 01:25:47;;;;;;;30.48;13.18;;;;;;;9.63;100.00;97789.78;5070186;28;20081;-72
2023/10/30 01:28:13;;;;;;;27.98;13.40;;;;;;;9.64;100.00;97781.69;5070044;28;20132;-73
2023/10/30 01:30:39;;;;;;;29.92;13.65;;;;;;;9.64;100.00;97779.03;5070010;28;20028;-72
2023/10/30 01:33:05;;;;;;;25.63;12.93;;;;;;;9.75;100.00;97784.63;5069721;28;20031;-73
2023/10/30 01:35:31;;;;;;;25.70;11.95;;;;;;;9.82;100.00;97777.16;5069934;28;20031;-73
2023/10/30 01:37:56;;;;;;;27.05;11.18;;;;;;;9.86;100.00;97781.38;5069706;28;20024;-73
2023/10/30 01:40:22;;;;;;;25.08;10.25;;;;;;;9.88;100.00;97790.16;5069765;28;20471;-72
2023/10/30 01:42:47;;;;;;;19.75;10.35;;;;;;;9.86;100.00;97783.19;5069783;28;20031;-72
2023/10/30 01:45:13;;;;;;;21.83;9.23;;;;;;;9.86;100.00;97776.03;5069645;28;20194;-73
2023/10/30 01:47:39;;;;;;;20.08;9.55;;;;;;;9.87;100.00;97769.75;5068681;28;20017;-73
2023/10/30 01:50:07;;;;;;;18.65;8.55;;;;;;;9.86;100.00;97776.03;5069535;28;20046;-73
2023/10/30 01:52:34;;;;;;;21.15;9.18;;;;;;;9.86;100.00;97784.06;5069535;28;20024;-73
2023/10/30 01:55:00;;;;;;;20.67;9.35;;;;;;;9.84;100.00;97782.41;5069463;28;20047;-72
2023/10/30 01:57:27;;;;;;;18.48;7.47;;;;;;;9.78;100.00;97781.78;5070768;28;20024;-73
2023/10/30 01:59:53;;;;;;;18.10;6.40;;;;;;;9.68;100.00;97787.75;5069487;28;20032;-73
2023/10/30 02:02:22;;;;;;;13.07;5.85;;;;;;;9.62;100.00;97785.41;5069411;28;20054;-72
2023/10/30 02:04:47;;;;;;;16.50;6.95;;;;;;;9.61;100.00;97781.00;5069460;28;20106;-72
2023/10/30 02:07:13;;;;;;;17.23;7.43;;;;;;;9.52;100.00;97778.81;5069061;28;20472;-73
2023/10/30 02:09:39;;;;;;;21.52;8.43;;;;;;;9.40;100.00;97772.34;5069412;28;20039;-73
2023/10/30 02:12:06;;;;;;;17.27;8.30;;;;;;;9.33;100.00;97783.41;5069291;28;20028;-73
2023/10/30 02:14:32;;;;;;;19.02;9.07;;;;;;;9.38;100.00;97787.59;5069354;28;20036;-73
2023/10/30 02:16:58;;;;;;;19.08;9.18;;;;;;;9.32;100.00;97773.72;5069484;28;20028;-73
2023/10/30 02:19:25;;;;;;;16.02;8.68;;;;;;;9.34;100.00;97780.69;5069066;28;20051;-72
2023/10/30 02:21:55;;;;;;;20.55;9.63;;;;;;;9.24;100.00;97777.63;5068902;28;20551;-72
2023/10/30 02:24:21;;;;;;;16.75;8.95;;;;;;;9.22;100.00;97781.34;5068976;28;20032;-72
2023/10/30 02:26:47;;;;;;;23.60;9.25;;;;;;;9.14;100.00;97789.72;5068937;28;20507;-73
2023/10/30 02:29:14;;;;;;;20.83;9.05;;;;;;;9.09;100.00;97783.78;5069992;28;20546;-72
2023/10/30 02:31:40;;;;;;;20.35;9.30;;;;;;;9.16;100.00;97787.88;5069160;28;20017;-72
2023/10/30 02:34:06;;;;;;;20.33;9.50;;;;;;;9.12;100.00;97780.94;5052190;28;20047;-73
2023/10/30 02:36:31;;;;;;;23.15;9.15;;;;;;;9.18;100.00;97780.63;5069032;28;20024;-71
2023/10/30 02:38:57;;;;;;;23.92;10.00;;;;;;;9.21;100.00;97788.47;5069021;28;20024;-73
2023/10/30 02:41:22;;;;;;;36.10;9.90;;;;;;;9.18;100.00;97785.09;5070081;28;20024;-72
2023/10/30 02:43:48;;;;;;;22.00;7.85;;;;;;;9.18;100.00;97787.78;5070214;28;20090;-73
2023/10/30 02:46:14;;;;;;;18.00;9.05;;;;;;;9.11;100.00;97784.56;5068750;28;20029;-73
2023/10/30 02:48:39;;;;;;;18.92;9.43;;;;;;;9.12;100.00;97791.63;5068854;28;20032;-73
2023/10/30 02:51:05;;;;;;;13.45;7.82;;;;;;;9.14;100.00;97787.06;5068910;28;20035;-73
2023/10/30 02:53:30;;;;;;;18.48;7.63;;;;;;;9.11;100.00;97781.03;5068723;28;20024;-72
2023/10/30 02:55:56;;;;;;;24.90;8.35;;;;;;;9.05;100.00;97782.22;5070087;28;20033;-73
2023/10/30 02:58:22;;;;;;;19.15;7.20;;;;;;;9.09;100.00;97783.78;5069982;28;20469;-72
2023/10/30 03:00:48;;;;;;;11.23;6.45;;;;;;;9.01;100.00;97783.31;5072751;28;20067;-73
2023/10/30 03:03:13;;;;;;;18.30;7.05;;;;;;;8.95;100.00;97780.13;5056046;28;20025;-72
2023/10/30 03:05:39;;;;;;;16.88;7.82;;;;;;;9.05;100.00;97792.88;5072726;28;20025;-73
2023/10/30 03:08:04;;;;;;;32.53;11.10;;;;;;;9.10;100.00;97795.31;5072744;28;20033;-72
2023/10/30 03:10:30;;;;;;;27.52;10.38;;;;;;;9.09;100.00;97788.25;5074099;28;20503;-72
2023/10/30 03:12:56;;;;;;;28.23;10.45;;;;;;;9.10;100.00;97795.31;5072447;28;20024;-73
2023/10/30 03:15:22;;;;;;;23.08;10.63;;;;;;;9.08;100.00;97795.38;5072689;28;20028;-73
2023/10/30 03:17:47;;;;;;;28.42;11.63;;;;;;;9.08;100.00;97798.06;5055684;28;20035;-72
2023/10/30 03:20:14;;;;;;;18.90;9.93;;;;;;;9.08;100.00;97807.84;5073696;28;20036;-72
2023/10/30 03:22:40;;;;;;;22.20;11.55;;;;;;;9.00;100.00;97799.41;5072256;28;20036;-72
2023/10/30 03:25:06;;;;;;;25.15;9.70;;;;;;;8.92;100.00;97797.13;5073555;28;20443;-72
2023/10/30 03:27:35;;;;;;;26.20;10.45;;;;;;;8.94;100.00;97787.25;5072141;28;20408;-73
2023/10/30 03:30:00;;;;;;;19.83;9.48;;;;;;;8.96;100.00;97792.50;5073210;28;20052;-73
2023/10/30 03:32:26;;;;;;;24.98;9.65;;;;;;;8.98;100.00;97799.47;5072245;28;20075;-73
2023/10/30 03:34:52;;;;;;;18.02;9.77;;;;;;;8.98;100.00;97790.63;5073225;28;20040;-72
2023/10/30 03:37:18;;;;;;;20.02;9.40;;;;;;;9.05;100.00;97798.22;5073281;28;20468;-72
2023/10/30 03:39:44;;;;;;;13.65;6.85;;;;;;;9.02;100.00;97798.38;5073143;28;20032;-73
2023/10/30 03:42:10;;;;;;;88.88;26.33;;;;;;;8.91;100.00;97791.88;5071658;28;20031;-73
2023/10/30 03:44:35;;;;;;;81.90;25.90;;;;;;;8.81;100.00;97782.63;5072153;28;20464;-72
2023/10/30 03:47:01;;;;;;;31.85;12.57;;;;;;;8.83;100.00;97778.91;5071628;28;20024;-72
2023/10/30 03:49:27;;;;;;;40.95;13.23;;;;;;;8.78;100.00;97791.63;5071882;28;20034;-72
2023/10/30 03:51:52;;;;;;;37.53;13.85;;;;;;;8.81;100.00;97788.81;5054983;28;20024;-74
2023/10/30 03:54:18;;;;;;;40.40;13.20;;;;;;;8.87;100.00;97792.97;5071810;28;20035;-73
2023/10/30 03:56:43;;;;;;;29.83;10.82;;;;;;;8.88;100.00;97778.69;5071755;28;20051;-73
2023/10/30 03:59:09;;;;;;;30.50;11.63;;;;;;;8.77;100.00;97778.41;5071491;28;20039;-72
2023/10/30 04:01:37;;;;;;;21.85;8.90;;;;;;;8.74;100.00;97776.72;5054825;28;20458;-73
2023/10/30 04:04:05;;;;;;;17.45;7.43;;;;;;;8.75;100.00;97783.78;5055079;28;20020;-73
2023/10/30 04:06:30;;;;;;;27.98;7.30;;;;;;;8.80;100.00;97778.25;5063432;28;20118;-73
2023/10/30 04:08:56;;;;;;;20.13;7.38;;;;;;;8.82;100.00;97787.00;5072717;28;20103;-72
2023/10/30 04:11:21;;;;;;;21.42;6.78;;;;;;;8.81;100.00;97788.81;5070449;28;20392;-72
2023/10/30 04:13:47;;;;;;;31.40;11.57;;;;;;;8.72;100.00;97778.63;5072492;28;20024;-73
2023/10/30 04:16:15;;;;;;;28.05;10.00;;;;;;;8.76;100.00;97787.31;5071164;28;20025;-72
2023/10/30 04:18:41;;;;;;;21.90;8.10;;;;;;;8.81;100.00;97787.94;5071325;28;20025;-73
2023/10/30 04:21:06;;;;;;;17.95;7.57;;;;;;;8.75;100.00;97783.78;5070829;28;20047;-72
2023/10/30 04:23:32;;;;;;;23.00;9.52;;;;;;;8.75;100.00;97786.47;5071153;28;20089;-72
2023/10/30 04:25:57;;;;;;;19.17;8.70;;;;;;;8.76;100.00;97782.88;5072324;28;20107;-72
2023/10/30 04:28:23;;;;;;;24.42;8.73;;;;;;;8.76;100.00;97785.53;5070863;28;20028;-73
2023/10/30 04:30:49;;;;;;;23.30;8.73;;;;;;;8.67;100.00;97792.16;5072473;28;20016;-71
2023/10/30 04:33:14;;;;;;;15.85;7.55;;;;;;;8.69;100.00;97784.09;5070920;28;20017;-73
2023/10/30 04:35:40;;;;;;;22.52;8.48;;;;;;;8.71;100.00;97790.22;5071209;28;20020;-73
2023/10/30 04:38:05;;;;;;;22.92;9.25;;;;;;;8.74;100.00;97792.72;5070842;28;20540;-75
2023/10/30 04:40:31;;;;;;;27.60;10.15;;;;;;;8.71;100.00;97776.88;5072008;28;20028;-77
2023/10/30 04:42:56;;;;;;;38.75;10.35;;;;;;;8.71;100.00;97779.53;5071253;28;20051;-75
2023/10/30 04:45:22;;;;;;;22.55;9.77;;;;;;;8.70;100.00;97785.84;5072054;28;20106;-73
2023/10/30 04:47:48;;;;;;;27.33;10.18;;;;;;;8.64;100.00;97791.47;5070760;28;20025;-73
2023/10/30 04:50:13;;;;;;;30.85;11.70;;;;;;;8.67;100.00;97794.00;5053866;28;20032;-73
2023/10/30 04:52:39;;;;;;;32.90;14.95;;;;;;;8.60;100.00;97782.78;5053479;28;20046;-73
2023/10/30 04:55:05;;;;;;;39.95;15.65;;;;;;;8.58;100.00;97787.28;5070451;28;20099;-73
2023/10/30 04:57:30;;;;;;;34.42;14.23;;;;;;;8.54;100.00;97793.75;5070386;28;20025;-71
2023/10/30 04:59:56;;;;;;;25.60;12.13;;;;;;;8.57;100.00;97801.59;5070600;28;20479;-73
2023/10/30 05:02:21;;;;;;;22.05;12.10;;;;;;;8.55;100.00;97806.13;5070066;28;20012;-73
2023/10/30 05:04:47;;;;;;;31.42;12.40;;;;;;;8.49;100.00;97810.91;5070166;28;20555;-72
2023/10/30 05:07:12;;;;;;;29.33;12.70;;;;;;;8.44;100.00;97803.13;5069997;28;20035;-74
2023/10/30 05:09:38;;;;;;;26.48;12.75;;;;;;;8.42;100.00;97814.81;5070242;28;20065;-73
2023/10/30 05:12:04;;;;;;;29.35;12.85;;;;;;;8.55;100.00;97823.94;5053264;28;20035;-74
2023/10/30 05:14:30;;;;;;;30.17;14.77;;;;;;;8.56;100.00;97813.19;5053361;28;20093;-73
2023/10/30 05:16:55;;;;;;;34.95;11.88;;;;;;;8.50;100.00;97804.63;5071875;28;20443;-73
2023/10/30 05:19:21;;;;;;;23.25;10.93;;;;;;;8.55;100.00;97807.94;5069804;28;20040;-74
2023/10/30 05:21:46;;;;;;;24.33;11.07;;;;;;;8.59;100.00;97806.81;5069823;28;20041;-71
2023/10/30 05:24:12;;;;;;;25.27;10.73;;;;;;;8.62;100.00;97809.34;5069808;28;20032;-73
2023/10/30 05:26:37;;;;;;;29.85;11.10;;;;;;;8.75;100.00;97805.13;5053048;28;20093;-73
2023/10/30 05:29:03;;;;;;;24.20;12.77;;;;;;;8.77;100.00;97813.91;5053001;28;20115;-73
2023/10/30 05:31:28;;;;;;;25.25;11.30;;;;;;;8.80;100.00;97812.91;5069770;28;20071;-73
2023/10/30 05:33:54;;;;;;;20.00;10.88;;;;;;;8.91;100.00;97822.09;5052932;28;20025;-72
2023/10/30 05:36:20;;;;;;;26.52;11.15;;;;;;;8.95;100.00;97812.13;5071141;28;20056;-73
2023/10/30 05:38:46;;;;;;;40.33;14.77;;;;;;;9.08;100.00;97830.06;5070769;28;20097;-73
2023/10/30 05:41:11;;;;;;;33.55;13.63;;;;;;;9.23;100.00;97834.63;5052670;28;20029;-72
2023/10/30 05:43:37;;;;;;;31.23;14.40;;;;;;;9.25;100.00;97838.09;5069454;28;20033;-73
2023/10/30 05:46:03;;;;;;;33.83;13.52;;;;;;;9.40;100.00;97840.88;5069780;28;20446;-72
2023/10/30 05:48:28;;;;;;;30.60;14.55;;;;;;;9.54;100.00;97838.34;5070648;28;20141;-73
2023/10/30 05:50:54;;;;;;;42.10;17.25;;;;;;;9.83;100.00;97840.34;5069571;28;20524;-73
2023/10/30 05:53:19;;;;;;;39.60;14.30;;;;;;;10.86;100.00;97842.50;5069464;28;20025;-73
2023/10/30 05:55:45;;;;;;;28.80;13.35;;;;;;;12.09;100.00;97830.47;5070357;28;20040;-72
2023/10/30 05:58:12;;;;;;;33.15;13.30;;;;;;;13.18;100.00;97823.28;5069490;28;20549;-73
2023/10/30 06:00:37;;;;;;;22.15;10.15;;;;;;;14.12;100.00;97811.22;5069278;28;20020;-72
2023/10/30 06:03:03;;;;;;;26.55;10.63;;;;;;;15.01;100.00;97801.06;5069473;28;20086;-73
2023/10/30 06:05:28;;;;;;;24.63;10.25;;;;;;;15.85;100.00;97803.50;5069715;28;20472;-73
2023/10/30 06:07:54;;;;;;;27.38;10.57;;;;;;;16.41;100.00;97794.44;5052522;28;20040;-72
2023/10/30 06:10:23;;;;;;;24.75;9.23;;;;;;;17.01;100.00;97791.22;5070542;28;20384;-73
2023/10/30 06:12:48;;;;;;;22.52;8.93;;;;;;;17.38;96.00;97788.13;5069282;28;20027;-72
2023/10/30 06:15:14;;;;;;;23.60;10.60;;;;;;;18.36;90.28;97777.53;5069265;28;20028;-73
2023/10/30 06:17:39;;;;;;;24.73;10.20;;;;;;;18.47;93.48;97784.72;5069176;28;20028;-75
2023/10/30 06:20:09;;;;;;;24.50;11.73;;;;;;;18.98;82.29;97783.72;5069303;28;20096;-74
2023/10/30 06:22:37;;;;;;;21.67;11.60;;;;;;;19.07;79.76;97772.03;5068989;28;20135;-75
2023/10/30 06:25:05;;;;;;;24.50;11.55;;;;;;;19.34;78.52;97761.31;5052714;28;20115;-72
2023/10/30 06:27:34;;;;;;;25.42;11.00;;;;;;;20.36;72.26;97766.81;5069551;28;20492;-74
2023/10/30 06:30:00;;;;;;;38.75;12.43;;;;;;;20.85;66.63;97743.78;5052547;28;20043;-74
2023/10/30 06:32:25;;;;;;;43.00;15.10;;;;;;;21.20;64.23;97750.25;5069146;28;20024;-74
2023/10/30 06:34:51;;;;;;;37.83;13.10;;;;;;;21.48;61.83;97750.00;5068745;28;20028;-74
2023/10/30 06:37:16;;;;;;;35.13;13.85;;;;;;;21.63;60.85;97767.47;5052551;28;20043;-73
2023/10/30 06:39:42;;;;;;;29.10;12.57;;;;;;;21.75;59.46;97754.44;5052292;28;20032;-74
2023/10/30 06:42:08;;;;;;;39.42;13.45;;;;;;;21.86;59.72;97766.97;5069356;28;20472;-74
2023/10/30 06:44:33;;;;;;;29.00;11.90;;;;;;;22.00;58.66;97774.56;5069354;28;20565;-75
2023/10/30 06:46:59;;;;;;;28.90;13.15;;;;;;;22.51;57.32;97770.94;5069113;28;20032;-74
2023/10/30 06:49:25;;;;;;;28.58;12.70;;;;;;;22.52;56.65;97769.91;5069566;28;20025;-74
2023/10/30 06:51:50;;;;;;;36.45;13.90;;;;;;;22.84;55.44;97770.06;5052158;28;20036;-75
2023/10/30 06:54:16;;;;;;;46.88;18.65;;;;;;;22.95;55.17;97764.28;5069113;28;20040;-75
2023/10/30 06:56:41;;;;;;;33.67;12.98;;;;;;;23.14;54.88;97774.91;5052404;28;20025;-74
2023/10/30 06:59:12;;;;;;;45.38;15.85;;;;;;;23.74;52.69;97774.66;5069087;28;20024;-74
2023/10/30 07:01:46;;;;;;;36.85;14.68;;;;;;;24.09;51.09;97765.19;5069184;28;20028;-74
2023/10/30 07:04:13;;;;;;;54.00;19.55;;;;;;;24.44;50.31;97761.22;5061376;28;20020;-74
2023/10/30 07:06:40;;;;;;;54.17;21.25;;;;;;;24.22;49.79;97760.94;5052294;28;20029;-74
2023/10/30 07:09:09;;;;;;;68.35;23.35;;;;;;;24.91;48.52;97759.31;5069032;28;20403;-75
2023/10/30 07:11:38;;;;;;;39.72;17.98;;;;;;;25.02;48.13;97761.66;5052852;28;20103;-74
2023/10/30 07:14:04;;;;;;;39.15;17.30;;;;;;;25.39;47.12;97763.63;5052774;28;20039;-74
2023/10/30 07:16:33;;;;;;;30.02;11.10;;;;;;;25.16;47.25;97763.59;5051927;28;20543;-74
2023/10/30 07:19:01;;;;;;;43.13;15.45;;;;;;;24.78;47.95;97753.53;5068865;28;20051;-74
2023/10/30 07:21:27;;;;;;;43.05;13.13;;;;;;;24.71;48.68;97760.75;5051785;28;20078;-74
2023/10/30 07:23:53;;;;;;;36.83;11.15;;;;;;;24.38;50.04;97767.38;5051984;28;20027;-73
2023/10/30 07:26:21;;;;;;;29.85;11.13;;;;;;;24.23;50.87;97770.84;5068777;28;20441;-75
2023/10/30 07:28:49;;;;;;;28.20;10.70;;;;;;;24.95;49.30;97760.66;5068919;28;20035;-74
2023/10/30 07:31:17;;;;;;;36.72;10.60;;;;;;;25.10;48.66;97755.28;5068932;28;20074;-74
2023/10/30 07:33:43;;;;;;;25.80;10.30;;;;;;;25.48;47.68;97748.84;5068896;28;20036;-74
2023/10/30 07:36:08;;;;;;;21.40;9.82;;;;;;;25.35;48.10;97752.19;5052166;28;20085;-74
2023/10/30 07:38:35;;;;;;;41.70;11.25;;;;;;;25.06;48.82;97751.19;5068884;28;20036;-72
2023/10/30 07:41:02;;;;;;;34.95;10.65;;;;;;;25.51;48.20;97747.63;5069760;28;20027;-73
2023/10/30 07:43:28;;;;;;;41.83;11.93;;;;;;;26.00;47.28;97742.56;5051551;28;20174;-73
2023/10/30 07:45:53;;;;;;;29.95;11.10;;;;;;;26.67;45.84;97724.19;5070127;28;20133;-73
2023/10/30 07:48:20;;;;;;;34.33;10.73;;;;;;;27.05;45.11;97727.59;5071899;28;20503;-72
2023/10/30 07:50:46;;;;;;;29.15;10.73;;;;;;;26.75;46.37;97737.78;5072323;28;20016;-73
2023/10/30 07:53:14;;;;;;;38.55;10.35;;;;;;;26.79;46.81;97731.69;5055325;28;20062;-72
2023/10/30 07:55:40;;;;;;;21.67;10.45;;;;;;;27.20;46.16;97712.78;5066782;28;20042;-73
2023/10/30 07:58:06;;;;;;;18.58;8.82;;;;;;;27.73;45.73;97729.81;5072538;28;20107;-73
2023/10/30 08:00:35;;;;;;;20.33;7.80;;;;;;;27.84;45.70;97743.88;5055498;28;20028;-72
2023/10/30 08:03:00;;;;;;;22.95;7.18;;;;;;;28.14;45.20;97732.72;5073301;28;20365;-73
2023/10/30 08:05:33;;;;;;;13.77;5.90;;;;;;;28.26;45.33;97737.47;5073230;28;20027;-72
2023/10/30 08:07:59;;;;;;;24.80;6.28;;;;;;;28.36;45.61;97739.88;5072215;28;20016;-73
2023/10/30 08:10:26;;;;;;;15.90;5.00;;;;;;;28.70;44.78;97736.28;5089151;28;20054;-73
2023/10/30 08:12:52;;;;;;;18.45;5.70;;;;;;;28.43;45.35;97743.47;5072011;28;20404;-73
2023/10/30 08:15:17;;;;;;;19.90;5.05;;;;;;;28.74;44.86;97745.81;5071812;28;20024;-73
2023/10/30 08:17:43;;;;;;;17.20;6.00;;;;;;;29.13;44.22;97740.47;5071877;28;20024;-71
2023/10/30 08:20:09;;;;;;;23.38;5.40;;;;;;;29.29;43.35;97744.78;5071924;28;20111;-73
2023/10/30 08:22:36;;;;;;;17.90;4.82;;;;;;;29.39;43.34;97725.94;5071741;28;20051;-72
2023/10/30 08:25:04;;;;;;;26.20;6.20;;;;;;;29.72;43.00;97731.53;5071764;28;20117;-73
2023/10/30 08:27:30;;;;;;;11.82;4.90;;;;;;;30.18;42.07;97737.06;5071551;28;20041;-73
2023/10/30 08:29:56;;;;;;;26.70;4.82;;;;;;;29.93;42.22;97731.34;5054689;28;20119;-73
2023/10/30 08:32:21;;;;;;;19.25;4.70;;;;;;;30.04;41.65;97728.78;5071700;28;20029;-73
2023/10/30 08:34:47;;;;;;;23.42;4.70;;;;;;;30.74;41.10;97726.31;5071310;28;20549;-73
2023/10/30 08:37:12;;;;;;;21.88;5.32;;;;;;;31.17;40.51;97721.91;5088402;28;20056;-74
2023/10/30 08:39:38;;;;;;;31.05;5.75;;;;;;;31.56;39.31;97712.56;5071188;28;20499;-72
2023/10/30 08:42:04;;;;;;;9.82;5.60;;;;;;;32.26;37.93;97716.91;5071260;28;20028;-73
2023/10/30 08:44:31;;;;;;;8.63;4.03;;;;;;;33.13;36.29;97710.22;5054332;28;20024;-73
2023/10/30 08:46:57;;;;;;;12.68;5.22;;;;;;;33.42;35.95;97698.25;5072346;28;20027;-73
2023/10/30 08:49:23;;;;;;;11.80;4.05;;;;;;;33.81;35.12;97696.00;5071091;28;20562;-73
2023/10/30 08:51:49;;;;;;;18.63;7.88;;;;;;;33.99;34.96;97701.44;5072073;28;20099;-73
2023/10/30 08:54:14;;;;;;;11.88;3.50;;;;;;;34.74;33.75;97686.59;5071114;28;20039;-72
2023/10/30 08:56:41;;;;;;;11.93;3.80;;;;;;;34.81;33.22;97681.75;5072187;28;20039;-73
2023/10/30 08:59:07;;;;;;;8.65;2.40;;;;;;;34.61;32.40;97681.31;5071045;28;20036;-74
2023/10/30 09:01:32;;;;;;;5.00;2.40;;;;;;;33.68;32.94;97672.91;5070814;28;20109;-73
2023/10/30 09:03:58;;;;;;;5.75;3.08;;;;;;;33.05;34.00;97679.97;5071973;28;20033;-74
2023/10/30 09:06:24;;;;;;;8.68;2.85;;;;;;;33.99;33.57;97682.84;5071948;28;20042;-74
2023/10/30 09:08:49;;;;;;;8.15;2.95;;;;;;;34.49;32.56;97677.66;5070757;28;20103;-74
2023/10/30 09:11:15;;;;;;;6.57;2.17;;;;;;;34.75;31.89;97666.06;5070554;28;20078;-74
2023/10/30 09:13:40;;;;;;;6.55;2.40;;;;;;;34.18;32.27;97666.94;5071754;28;20024;-77
2023/10/30 09:16:06;;;;;;;6.32;2.10;;;;;;;32.87;33.07;97657.81;5071791;28;20487;-73
2023/10/30 09:18:31;;;;;;;4.88;2.22;;;;;;;32.48;34.03;97662.75;5087389;28;20119;-73
2023/10/30 09:21:00;;;;;;;4.40;2.45;;;;;;;32.55;33.86;97666.28;5070261;28;20040;-74
2023/10/30 09:23:26;;;;;;;4.63;2.38;;;;;;;32.13;34.19;97653.34;5087226;28;20028;-74
2023/10/30 09:25:51;;;;;;;5.65;2.30;;;;;;;32.34;33.95;97663.97;5071520;28;20016;-73
2023/10/30 09:28:17;;;;;;;2.95;1.77;;;;;;;32.12;33.86;97663.56;5071185;28;20044;-74
2023/10/30 09:30:46;;;;;;;3.03;2.00;;;;;;;32.26;33.62;97658.75;5070397;28;20507;-75
2023/10/30 09:33:12;;;;;;;8.27;2.40;;;;;;;32.20;33.95;97654.97;5087033;28;20059;-72
2023/10/30 09:35:38;;;;;;;8.60;2.47;;;;;;;32.82;33.27;97657.69;5070246;28;20055;-74
2023/10/30 09:38:04;;;;;;;8.75;2.40;;;;;;;32.83;32.59;97649.13;5070120;28;20021;-73
2023/10/30 09:40:30;;;;;;;7.75;1.90;;;;;;;32.58;33.22;97640.06;5070008;28;20025;-74
2023/10/30 09:42:56;;;;;;;4.97;2.00;;;;;;;32.68;32.43;97644.00;5069723;28;20400;-73
2023/10/30 09:45:23;;;;;;;5.68;1.92;;;;;;;31.87;33.15;97632.25;5069852;28;20028;-74
2023/10/30 09:47:57;;;;;;;7.95;2.45;;;;;;;31.93;33.69;97630.53;5069954;28;20471;-75
2023/10/30 09:50:23;;;;;;;5.47;2.17;;;;;;;32.54;32.83;97620.28;5069853;28;20020;-74
2023/10/30 09:52:56;;;;;;;4.57;2.05;;;;;;;32.80;32.59;97623.78;5069660;28;20021;-73
2023/10/30 09:55:23;;;;;;;6.32;2.80;;;;;;;32.45;32.23;97613.38;5053313;28;20400;-73
2023/10/30 09:57:51;;;;;;;8.18;1.80;;;;;;;32.40;32.01;97607.66;5069688;28;20034;-74
2023/10/30 10:00:18;;;;;;;3.72;1.80;;;;;;;33.05;31.17;97596.78;5069734;28;20040;-73
2023/10/30 10:02:44;;;;;;;3.72;2.42;;;;;;;33.32;31.24;97600.88;5069721;28;20024;-74
2023/10/30 10:05:10;;;;;;;6.85;1.80;;;;;;;32.70;31.30;97603.03;5069721;28;20083;-74
2023/10/30 10:07:36;;;;;;;4.82;1.88;;;;;;;32.40;31.44;97591.03;5069039;28;20027;-75
2023/10/30 10:10:03;;;;;;;3.88;2.20;;;;;;;32.39;31.65;97585.75;5069220;28;20028;-74
2023/10/30 10:12:30;;;;;;;3.08;1.60;;;;;;;33.13;30.49;97577.91;5071116;28;20474;-73
2023/10/30 10:14:56;;;;;;;2.28;1.55;;;;;;;32.81;30.20;97584.78;5052863;28;20041;-74
2023/10/30 10:17:22;;;;;;;2.38;1.48;;;;;;;33.70;29.27;97584.69;5069213;28;20032;-74
2023/10/30 10:19:48;;;;;;;8.57;1.73;;;;;;;33.83;28.74;97579.97;5052977;28;20036;-74
2023/10/30 10:22:33;;;;;;;3.15;1.70;;;;;;;33.53;28.42;97574.50;5070426;28;20132;-74
2023/10/30 10:25:00;;;;;;;3.35;1.70;;;;;;;33.64;28.25;97562.59;5070428;28;20039;-74
2023/10/30 10:27:26;;;;;;;4.30;1.50;;;;;;;34.08;28.47;97558.34;5070496;28;20396;-73
2023/10/30 10:29:56;;;;;;;3.97;2.00;;;;;;;34.90;27.36;97570.13;5052545;28;20039;-73
2023/10/30 10:32:28;;;;;;;4.85;1.65;;;;;;;34.55;27.20;97554.38;5069193;28;20031;-74
2023/10/30 10:35:02;;;;;;;3.00;1.55;;;;;;;34.67;26.98;97546.06;5069186;28;20028;-74
2023/10/30 10:37:28;;;;;;;8.05;1.55;;;;;;;34.85;26.84;97548.63;5069109;28;20039;-74
2023/10/30 10:39:54;;;;;;;4.38;1.67;;;;;;;35.28;26.83;97546.13;5069249;28;20028;-74
2023/10/30 10:42:21;;;;;;;4.45;1.98;;;;;;;35.27;26.89;97535.25;5069091;28;20082;-74
2023/10/30 10:44:51;;;;;;;3.78;1.67;;;;;;;35.38;26.61;97533.47;5069142;28;20028;-74
2023/10/30 10:47:18;;;;;;;3.03;1.40;;;;;;;35.43;26.28;97539.97;5066873;28;20035;-73
2023/10/30 10:49:44;;;;;;;2.85;1.80;;;;;;;35.04;26.45;97522.28;5052124;28;20075;-74
2023/10/30 10:52:12;;;;;;;4.18;1.95;;;;;;;35.56;26.78;97514.59;5069048;28;20158;-74
2023/10/30 10:54:53;;;;;;;3.83;1.40;;;;;;;35.21;26.73;97522.34;5068870;28;20032;-74
2023/10/30 10:57:21;;;;;;;4.10;1.73;;;;;;;35.12;26.46;97521.06;5070450;28;20042;-74
2023/10/30 10:59:48;;;;;;;4.53;1.70;;;;;;;34.71;26.99;97525.00;5068883;28;20406;-73
2023/10/30 11:02:21;;;;;;;3.50;1.55;;;;;;;34.73;27.19;97518.09;5068660;28;20021;-74
2023/10/30 11:04:50;;;;;;;3.17;1.55;;;;;;;34.93;26.56;97512.06;5069013;28;20027;-74
2023/10/30 11:07:41;;;;;;;6.18;1.83;;;;;;;35.72;25.81;97510.09;5068733;28;20119;-73
2023/10/30 11:10:13;;;;;;;4.40;1.15;;;;;;;35.27;25.23;97504.63;5069705;28;20119;-74
2023/10/30 11:12:55;;;;;;;2.53;1.23;;;;;;;35.39;25.46;97494.25;5068736;28;20017;-75
2023/10/30 11:15:30;;;;;;;5.75;3.95;;;;;;;35.98;25.83;97487.09;5068862;28;20052;-75
2023/10/30 11:18:20;;;;;;;3.72;1.40;;;;;;;36.44;25.17;97496.91;5069318;28;20032;-73
2023/10/30 11:20:46;;;;;;;4.63;2.15;;;;;;;37.11;24.61;97482.59;5071656;28;20041;-74